sensor_id;sensor_type;location;lat;lon;timestamp;P1;durP1;ratioP1;P2;durP2;ratioP2
67816;SDS011;54614;47.576;7.524;2024-01-16T00:02:06;4.63;;;3.17;;
67816;SDS011;54614;47.576;7.524;2024-01-16T00:04:35;3.57;;;3.17;;
67816;SDS011;54614;47.576;7.524;2024-01-16T00:07:02;5.13;;;3.13;;
67816;SDS011;54614;47.576;7.524;2024-01-16T00:09:29;4.47;;;3.17;;
67816;SDS011;54614;47.576;7.524;2024-01-16T00:11:57;4.17;;;3.17;;
67816;SDS011;54614;47.576;7.524;2024-01-16T00:14:23;5.07;;;3.10;;
67816;SDS011;54614;47.576;7.524;2024-01-16T00:16:48;4.03;;;2.90;;
67816;SDS011;54614;47.576;7.524;2024-01-16T00:19:14;7.33;;;2.93;;
67816;SDS011;54614;47.576;7.524;2024-01-16T00:21:44;4.63;;;3.30;;
67816;SDS011;54614;47.576;7.524;2024-01-16T00:24:11;3.93;;;2.80;;
67816;SDS011;54614;47.576;7.524;2024-01-16T00:26:38;3.77;;;3.00;;
67816;SDS011;54614;47.576;7.524;2024-01-16T00:29:04;5.03;;;3.10;;
67816;SDS011;54614;47.576;7.524;2024-01-16T00:31:29;4.63;;;2.80;;
67816;SDS011;54614;47.576;7.524;2024-01-16T00:33:55;3.60;;;2.70;;
67816;SDS011;54614;47.576;7.524;2024-01-16T00:36:21;5.90;;;3.00;;
67816;SDS011;54614;47.576;7.524;2024-01-16T00:38:46;3.30;;;2.90;;
67816;SDS011;54614;47.576;7.524;2024-01-16T00:41:12;4.23;;;3.20;;
67816;SDS011;54614;47.576;7.524;2024-01-16T00:43:42;3.53;;;3.00;;
67816;SDS011;54614;47.576;7.524;2024-01-16T00:46:08;3.70;;;3.03;;
67816;SDS011;54614;47.576;7.524;2024-01-16T00:48:34;3.43;;;2.80;;
67816;SDS011;54614;47.576;7.524;2024-01-16T00:51:00;4.33;;;3.03;;
67816;SDS011;54614;47.576;7.524;2024-01-16T00:53:26;4.43;;;2.90;;
67816;SDS011;54614;47.576;7.524;2024-01-16T00:55:52;4.47;;;3.30;;
67816;SDS011;54614;47.576;7.524;2024-01-16T05:08:55;5.53;;;2.67;;
67816;SDS011;54614;47.576;7.524;2024-01-16T05:11:21;3.33;;;2.80;;
67816;SDS011;54614;47.576;7.524;2024-01-16T05:13:46;2.67;;;2.30;;
67816;SDS011;54614;47.576;7.524;2024-01-16T05:16:12;5.53;;;2.80;;
67816;SDS011;54614;47.576;7.524;2024-01-16T05:18:41;6.10;;;3.03;;
67816;SDS011;54614;47.576;7.524;2024-01-16T05:21:08;4.33;;;2.87;;
67816;SDS011;54614;47.576;7.524;2024-01-16T05:23:34;5.60;;;2.87;;
67816;SDS011;54614;47.576;7.524;2024-01-16T05:25:59;3.37;;;2.67;;
67816;SDS011;54614;47.576;7.524;2024-01-16T05:28:26;4.37;;;2.57;;
67816;SDS011;54614;47.576;7.524;2024-01-16T05:30:51;3.13;;;2.60;;
67816;SDS011;54614;47.576;7.524;2024-01-16T05:33:17;5.07;;;2.67;;
67816;SDS011;54614;47.576;7.524;2024-01-16T05:35:43;4.93;;;2.63;;
67816;SDS011;54614;47.576;7.524;2024-01-16T05:38:08;3.40;;;2.70;;
67816;SDS011;54614;47.576;7.524;2024-01-16T05:40:37;2.63;;;2.43;;
67816;SDS011;54614;47.576;7.524;2024-01-16T05:43:03;2.90;;;2.60;;
67816;SDS011;54614;47.576;7.524;2024-01-16T05:45:29;3.63;;;2.50;;
67816;SDS011;54614;47.576;7.524;2024-01-16T05:47:55;3.53;;;2.40;;
67816;SDS011;54614;47.576;7.524;2024-01-16T05:50:21;4.17;;;2.67;;
67816;SDS011;54614;47.576;7.524;2024-01-16T05:52:47;2.87;;;2.43;;
67816;SDS011;54614;47.576;7.524;2024-01-16T05:55:13;3.13;;;2.40;;
67816;SDS011;54614;47.576;7.524;2024-01-16T05:57:38;3.00;;;2.57;;
67816;SDS011;54614;47.576;7.524;2024-01-16T06:00:04;3.30;;;2.27;;
67816;SDS011;54614;47.576;7.524;2024-01-16T06:02:31;2.50;;;2.20;;
67816;SDS011;54614;47.576;7.524;2024-01-16T06:04:57;2.73;;;2.40;;
67816;SDS011;54614;47.576;7.524;2024-01-16T06:07:22;3.43;;;2.27;;
67816;SDS011;54614;47.576;7.524;2024-01-16T06:09:48;2.60;;;2.40;;
67816;SDS011;54614;47.576;7.524;2024-01-16T06:12:14;3.00;;;2.37;;
67816;SDS011;54614;47.576;7.524;2024-01-16T06:14:40;2.40;;;2.20;;
67816;SDS011;54614;47.576;7.524;2024-01-16T06:17:05;3.33;;;2.33;;
67816;SDS011;54614;47.576;7.524;2024-01-16T06:19:31;4.80;;;2.53;;
67816;SDS011;54614;47.576;7.524;2024-01-16T06:22:00;3.17;;;2.30;;
67816;SDS011;54614;47.576;7.524;2024-01-16T06:24:27;3.23;;;2.33;;
67816;SDS011;54614;47.576;7.524;2024-01-16T06:26:54;2.57;;;2.37;;
67816;SDS011;54614;47.576;7.524;2024-01-16T06:29:20;6.67;;;2.23;;
67816;SDS011;54614;47.576;7.524;2024-01-16T06:31:46;4.90;;;2.27;;
67816;SDS011;54614;47.576;7.524;2024-01-16T06:34:11;2.77;;;2.40;;
67816;SDS011;54614;47.576;7.524;2024-01-16T06:36:37;3.83;;;2.10;;
67816;SDS011;54614;47.576;7.524;2024-01-16T06:39:03;3.70;;;2.60;;
67816;SDS011;54614;47.576;7.524;2024-01-16T06:41:29;3.97;;;2.53;;
67816;SDS011;54614;47.576;7.524;2024-01-16T06:43:54;4.57;;;2.20;;
67816;SDS011;54614;47.576;7.524;2024-01-16T06:46:20;5.57;;;2.60;;
67816;SDS011;54614;47.576;7.524;2024-01-16T06:48:46;5.17;;;2.60;;
67816;SDS011;54614;47.576;7.524;2024-01-16T06:51:13;5.53;;;2.30;;
67816;SDS011;54614;47.576;7.524;2024-01-16T06:53:40;6.73;;;2.30;;
67816;SDS011;54614;47.576;7.524;2024-01-16T06:56:06;8.97;;;2.37;;
67816;SDS011;54614;47.576;7.524;2024-01-16T06:58:33;3.77;;;2.60;;
67816;SDS011;54614;47.576;7.524;2024-01-16T07:01:00;3.63;;;2.40;;
67816;SDS011;54614;47.576;7.524;2024-01-16T07:03:26;9.03;;;2.50;;
67816;SDS011;54614;47.576;7.524;2024-01-16T07:05:51;7.23;;;2.60;;
67816;SDS011;54614;47.576;7.524;2024-01-16T07:08:17;3.60;;;2.40;;
67816;SDS011;54614;47.576;7.524;2024-01-16T07:10:43;9.10;;;2.10;;
67816;SDS011;54614;47.576;7.524;2024-01-16T07:13:09;7.00;;;2.40;;
67816;SDS011;54614;47.576;7.524;2024-01-16T07:15:34;8.03;;;2.40;;
67816;SDS011;54614;47.576;7.524;2024-01-16T07:18:00;6.13;;;2.77;;
67816;SDS011;54614;47.576;7.524;2024-01-16T07:20:26;3.03;;;2.50;;
67816;SDS011;54614;47.576;7.524;2024-01-16T07:22:52;4.57;;;2.70;;
67816;SDS011;54614;47.576;7.524;2024-01-16T07:25:17;5.40;;;2.90;;
67816;SDS011;54614;47.576;7.524;2024-01-16T07:27:43;4.63;;;2.87;;
67816;SDS011;54614;47.576;7.524;2024-01-16T07:30:11;6.37;;;3.00;;
67816;SDS011;54614;47.576;7.524;2024-01-16T07:32:37;6.63;;;2.70;;
67816;SDS011;54614;47.576;7.524;2024-01-16T07:35:03;5.83;;;3.07;;
67816;SDS011;54614;47.576;7.524;2024-01-16T07:37:29;6.27;;;2.93;;
67816;SDS011;54614;47.576;7.524;2024-01-16T07:39:55;6.67;;;3.07;;
67816;SDS011;54614;47.576;7.524;2024-01-16T07:42:21;4.43;;;3.00;;
67816;SDS011;54614;47.576;7.524;2024-01-16T07:44:46;4.77;;;3.17;;
67816;SDS011;54614;47.576;7.524;2024-01-16T07:47:12;5.17;;;2.90;;
67816;SDS011;54614;47.576;7.524;2024-01-16T07:49:38;6.67;;;3.00;;
67816;SDS011;54614;47.576;7.524;2024-01-16T07:52:04;5.03;;;2.93;;
67816;SDS011;54614;47.576;7.524;2024-01-16T07:54:29;5.77;;;3.00;;
67816;SDS011;54614;47.576;7.524;2024-01-16T07:56:56;5.50;;;2.90;;
67816;SDS011;54614;47.576;7.524;2024-01-16T07:59:21;6.67;;;2.87;;
67816;SDS011;54614;47.576;7.524;2024-01-16T08:01:47;3.57;;;3.00;;
67816;SDS011;54614;47.576;7.524;2024-01-16T08:04:13;6.17;;;2.90;;
67816;SDS011;54614;47.576;7.524;2024-01-16T08:06:39;4.83;;;2.90;;
67816;SDS011;54614;47.576;7.524;2024-01-16T08:09:04;4.60;;;2.93;;
67816;SDS011;54614;47.576;7.524;2024-01-16T08:11:31;4.70;;;3.03;;
67816;SDS011;54614;47.576;7.524;2024-01-16T08:13:56;3.57;;;2.87;;
67816;SDS011;54614;47.576;7.524;2024-01-16T08:16:22;9.10;;;3.10;;
67816;SDS011;54614;47.576;7.524;2024-01-16T08:18:49;3.60;;;2.90;;
67816;SDS011;54614;47.576;7.524;2024-01-16T08:21:14;8.43;;;3.40;;
67816;SDS011;54614;47.576;7.524;2024-01-16T08:23:40;5.40;;;2.90;;
67816;SDS011;54614;47.576;7.524;2024-01-16T08:26:06;3.80;;;3.17;;
67816;SDS011;54614;47.576;7.524;2024-01-16T08:28:31;4.07;;;3.10;;
67816;SDS011;54614;47.576;7.524;2024-01-16T08:30:57;7.27;;;3.50;;
67816;SDS011;54614;47.576;7.524;2024-01-16T08:33:23;4.73;;;3.10;;
67816;SDS011;54614;47.576;7.524;2024-01-16T08:35:49;6.40;;;3.10;;
67816;SDS011;54614;47.576;7.524;2024-01-16T08:38:15;5.43;;;2.97;;
67816;SDS011;54614;47.576;7.524;2024-01-16T08:40:41;3.40;;;2.90;;
67816;SDS011;54614;47.576;7.524;2024-01-16T08:43:06;3.73;;;2.80;;
67816;SDS011;54614;47.576;7.524;2024-01-16T08:45:32;5.37;;;2.90;;
67816;SDS011;54614;47.576;7.524;2024-01-16T08:47:58;4.60;;;2.80;;
67816;SDS011;54614;47.576;7.524;2024-01-16T08:50:24;3.07;;;2.70;;
67816;SDS011;54614;47.576;7.524;2024-01-16T08:52:50;4.80;;;2.80;;
67816;SDS011;54614;47.576;7.524;2024-01-16T08:55:16;4.37;;;2.73;;
67816;SDS011;54614;47.576;7.524;2024-01-16T08:57:42;3.40;;;3.00;;
67816;SDS011;54614;47.576;7.524;2024-01-16T09:00:08;3.77;;;3.13;;
67816;SDS011;54614;47.576;7.524;2024-01-16T09:02:34;2.80;;;2.50;;
67816;SDS011;54614;47.576;7.524;2024-01-16T09:05:01;5.23;;;2.73;;
67816;SDS011;54614;47.576;7.524;2024-01-16T09:07:27;4.57;;;2.70;;
67816;SDS011;54614;47.576;7.524;2024-01-16T09:09:53;4.23;;;2.70;;
67816;SDS011;54614;47.576;7.524;2024-01-16T09:12:19;3.90;;;2.70;;
67816;SDS011;54614;47.576;7.524;2024-01-16T09:14:45;3.07;;;2.77;;
67816;SDS011;54614;47.576;7.524;2024-01-16T09:17:11;3.33;;;2.70;;
67816;SDS011;54614;47.576;7.524;2024-01-16T09:19:37;2.83;;;2.53;;
67816;SDS011;54614;47.576;7.524;2024-01-16T09:22:03;3.53;;;2.83;;
67816;SDS011;54614;47.576;7.524;2024-01-16T09:24:29;2.97;;;2.60;;
67816;SDS011;54614;47.576;7.524;2024-01-16T09:26:55;3.97;;;2.60;;
67816;SDS011;54614;47.576;7.524;2024-01-16T09:29:23;3.93;;;3.00;;
67816;SDS011;54614;47.576;7.524;2024-01-16T09:31:49;3.97;;;2.40;;
67816;SDS011;54614;47.576;7.524;2024-01-16T09:34:16;3.33;;;2.70;;
67816;SDS011;54614;47.576;7.524;2024-01-16T09:36:43;2.60;;;2.40;;
67816;SDS011;54614;47.576;7.524;2024-01-16T09:39:09;3.33;;;2.50;;
67816;SDS011;54614;47.576;7.524;2024-01-16T09:41:38;2.90;;;2.30;;
67816;SDS011;54614;47.576;7.524;2024-01-16T09:44:04;2.80;;;2.40;;
67816;SDS011;54614;47.576;7.524;2024-01-16T09:46:32;3.60;;;2.40;;
67816;SDS011;54614;47.576;7.524;2024-01-16T09:49:02;2.97;;;2.60;;
67816;SDS011;54614;47.576;7.524;2024-01-16T09:51:29;3.10;;;2.50;;
67816;SDS011;54614;47.576;7.524;2024-01-16T09:53:55;2.97;;;2.60;;
67816;SDS011;54614;47.576;7.524;2024-01-16T09:56:22;2.87;;;2.40;;
67816;SDS011;54614;47.576;7.524;2024-01-16T09:58:49;3.17;;;2.50;;
67816;SDS011;54614;47.576;7.524;2024-01-16T10:01:26;2.60;;;2.40;;
67816;SDS011;54614;47.576;7.524;2024-01-16T10:03:53;2.67;;;2.40;;
67816;SDS011;54614;47.576;7.524;2024-01-16T10:06:19;2.60;;;2.33;;
67816;SDS011;54614;47.576;7.524;2024-01-16T10:08:46;2.60;;;2.40;;
67816;SDS011;54614;47.576;7.524;2024-01-16T10:11:12;5.17;;;2.40;;
67816;SDS011;54614;47.576;7.524;2024-01-16T10:13:37;3.30;;;2.50;;
67816;SDS011;54614;47.576;7.524;2024-01-16T10:16:04;2.60;;;2.40;;
67816;SDS011;54614;47.576;7.524;2024-01-16T10:18:30;2.40;;;2.20;;
67816;SDS011;54614;47.576;7.524;2024-01-16T10:20:57;2.53;;;2.30;;
67816;SDS011;54614;47.576;7.524;2024-01-16T10:23:26;3.43;;;2.60;;
67816;SDS011;54614;47.576;7.524;2024-01-16T10:28:32;2.93;;;2.60;;
67816;SDS011;54614;47.576;7.524;2024-01-16T10:31:09;5.10;;;2.40;;
67816;SDS011;54614;47.576;7.524;2024-01-16T10:33:39;2.40;;;2.20;;
67816;SDS011;54614;47.576;7.524;2024-01-16T10:36:08;3.30;;;2.20;;
67816;SDS011;54614;47.576;7.524;2024-01-16T10:38:37;2.53;;;2.33;;
67816;SDS011;54614;47.576;7.524;2024-01-16T10:41:10;2.33;;;2.13;;
67816;SDS011;54614;47.576;7.524;2024-01-16T10:43:37;3.90;;;2.43;;
67816;SDS011;54614;47.576;7.524;2024-01-16T10:48:43;3.30;;;2.27;;
67816;SDS011;54614;47.576;7.524;2024-01-16T10:51:23;2.50;;;2.20;;
67816;SDS011;54614;47.576;7.524;2024-01-16T10:53:51;3.23;;;2.37;;
67816;SDS011;54614;47.576;7.524;2024-01-16T10:56:30;2.30;;;2.10;;
67816;SDS011;54614;47.576;7.524;2024-01-16T10:58:59;2.70;;;2.30;;
67816;SDS011;54614;47.576;7.524;2024-01-16T11:01:59;2.73;;;2.10;;
67816;SDS011;54614;47.576;7.524;2024-01-16T11:04:28;2.63;;;2.20;;
67816;SDS011;54614;47.576;7.524;2024-01-16T11:06:54;3.30;;;2.20;;
67816;SDS011;54614;47.576;7.524;2024-01-16T11:09:20;2.53;;;2.27;;
67816;SDS011;54614;47.576;7.524;2024-01-16T11:11:46;2.40;;;2.20;;
67816;SDS011;54614;47.576;7.524;2024-01-16T11:14:16;2.80;;;2.20;;
67816;SDS011;54614;47.576;7.524;2024-01-16T11:16:43;2.70;;;2.10;;
67816;SDS011;54614;47.576;7.524;2024-01-16T11:19:12;2.40;;;2.20;;
67816;SDS011;54614;47.576;7.524;2024-01-16T11:21:41;2.30;;;2.10;;
67816;SDS011;54614;47.576;7.524;2024-01-16T11:24:08;2.30;;;2.10;;
67816;SDS011;54614;47.576;7.524;2024-01-16T11:26:34;2.97;;;2.20;;
67816;SDS011;54614;47.576;7.524;2024-01-16T11:32:01;2.43;;;2.13;;
67816;SDS011;54614;47.576;7.524;2024-01-16T11:37:07;2.30;;;2.10;;
67816;SDS011;54614;47.576;7.524;2024-01-16T11:39:34;2.43;;;2.13;;
67816;SDS011;54614;47.576;7.524;2024-01-16T11:42:00;2.47;;;2.27;;
67816;SDS011;54614;47.576;7.524;2024-01-16T11:47:18;3.37;;;2.10;;
67816;SDS011;54614;47.576;7.524;2024-01-16T11:49:49;2.03;;;1.93;;
67816;SDS011;54614;47.576;7.524;2024-01-16T11:55:25;2.20;;;2.00;;
67816;SDS011;54614;47.576;7.524;2024-01-16T12:01:15;2.37;;;2.17;;
67816;SDS011;54614;47.576;7.524;2024-01-16T12:03:44;3.10;;;2.37;;
67816;SDS011;54614;47.576;7.524;2024-01-16T12:06:11;2.43;;;2.20;;
67816;SDS011;54614;47.576;7.524;2024-01-16T12:08:41;2.27;;;2.07;;
67816;SDS011;54614;47.576;7.524;2024-01-16T12:11:07;3.30;;;2.13;;
67816;SDS011;54614;47.576;7.524;2024-01-16T12:13:32;2.33;;;2.00;;
67816;SDS011;54614;47.576;7.524;2024-01-16T12:16:01;2.77;;;2.27;;
67816;SDS011;54614;47.576;7.524;2024-01-16T12:18:29;1.97;;;1.80;;
67816;SDS011;54614;47.576;7.524;2024-01-16T12:20:55;2.00;;;1.80;;
67816;SDS011;54614;47.576;7.524;2024-01-16T12:23:20;2.47;;;2.00;;
67816;SDS011;54614;47.576;7.524;2024-01-16T12:25:51;2.10;;;1.90;;
67816;SDS011;54614;47.576;7.524;2024-01-16T12:28:20;2.17;;;1.97;;
67816;SDS011;54614;47.576;7.524;2024-01-16T12:30:50;2.20;;;1.90;;
67816;SDS011;54614;47.576;7.524;2024-01-16T12:33:16;2.73;;;2.20;;
67816;SDS011;54614;47.576;7.524;2024-01-16T12:35:47;2.27;;;2.07;;
67816;SDS011;54614;47.576;7.524;2024-01-16T12:38:14;2.30;;;2.10;;
67816;SDS011;54614;47.576;7.524;2024-01-16T12:40:44;2.30;;;2.10;;
67816;SDS011;54614;47.576;7.524;2024-01-16T12:43:15;2.50;;;1.97;;
67816;SDS011;54614;47.576;7.524;2024-01-16T12:45:43;2.23;;;2.03;;
67816;SDS011;54614;47.576;7.524;2024-01-16T12:48:10;2.13;;;1.93;;
67816;SDS011;54614;47.576;7.524;2024-01-16T12:50:37;2.37;;;2.17;;
67816;SDS011;54614;47.576;7.524;2024-01-16T12:53:07;2.10;;;1.90;;
67816;SDS011;54614;47.576;7.524;2024-01-16T12:55:38;2.33;;;2.00;;
67816;SDS011;54614;47.576;7.524;2024-01-16T13:00:46;1.97;;;1.77;;
67816;SDS011;54614;47.576;7.524;2024-01-16T13:03:14;2.10;;;1.90;;
67816;SDS011;54614;47.576;7.524;2024-01-16T13:05:45;2.00;;;1.90;;
67816;SDS011;54614;47.576;7.524;2024-01-16T13:08:23;2.00;;;1.80;;
67816;SDS011;54614;47.576;7.524;2024-01-16T13:11:06;2.17;;;1.97;;
67816;SDS011;54614;47.576;7.524;2024-01-16T13:13:37;2.30;;;2.10;;
67816;SDS011;54614;47.576;7.524;2024-01-16T13:16:04;1.90;;;1.80;;
67816;SDS011;54614;47.576;7.524;2024-01-16T13:18:34;3.50;;;2.17;;
67816;SDS011;54614;47.576;7.524;2024-01-16T13:21:00;2.20;;;2.00;;
67816;SDS011;54614;47.576;7.524;2024-01-16T13:23:26;2.60;;;2.03;;
67816;SDS011;54614;47.576;7.524;2024-01-16T13:25:54;2.90;;;1.83;;
67816;SDS011;54614;47.576;7.524;2024-01-16T13:28:21;3.47;;;2.00;;
67816;SDS011;54614;47.576;7.524;2024-01-16T13:30:47;2.17;;;2.00;;
67816;SDS011;54614;47.576;7.524;2024-01-16T13:33:14;3.77;;;2.00;;
67816;SDS011;54614;47.576;7.524;2024-01-16T13:35:43;3.30;;;1.90;;
67816;SDS011;54614;47.576;7.524;2024-01-16T13:38:14;2.47;;;2.27;;
67816;SDS011;54614;47.576;7.524;2024-01-16T13:40:41;2.43;;;2.10;;
67816;SDS011;54614;47.576;7.524;2024-01-16T13:43:07;2.50;;;2.07;;
67816;SDS011;54614;47.576;7.524;2024-01-16T13:45:33;2.77;;;2.10;;
67816;SDS011;54614;47.576;7.524;2024-01-16T13:48:03;2.70;;;2.10;;
67816;SDS011;54614;47.576;7.524;2024-01-16T13:50:31;3.03;;;2.10;;
67816;SDS011;54614;47.576;7.524;2024-01-16T13:53:01;2.40;;;2.00;;
67816;SDS011;54614;47.576;7.524;2024-01-16T13:55:28;3.23;;;1.90;;
67816;SDS011;54614;47.576;7.524;2024-01-16T13:57:55;2.43;;;1.90;;
67816;SDS011;54614;47.576;7.524;2024-01-16T14:00:22;1.90;;;1.80;;
67816;SDS011;54614;47.576;7.524;2024-01-16T14:02:49;3.53;;;1.97;;
67816;SDS011;54614;47.576;7.524;2024-01-16T14:05:16;2.10;;;2.00;;
67816;SDS011;54614;47.576;7.524;2024-01-16T14:07:50;5.37;;;2.00;;
67816;SDS011;54614;47.576;7.524;2024-01-16T14:10:17;2.30;;;1.93;;
67816;SDS011;54614;47.576;7.524;2024-01-16T14:12:46;2.57;;;1.90;;
67816;SDS011;54614;47.576;7.524;2024-01-16T14:15:14;1.93;;;1.80;;
67816;SDS011;54614;47.576;7.524;2024-01-16T14:17:49;4.07;;;1.80;;
67816;SDS011;54614;47.576;7.524;2024-01-16T14:20:20;2.33;;;2.00;;
67816;SDS011;54614;47.576;7.524;2024-01-16T14:22:52;2.20;;;2.00;;
67816;SDS011;54614;47.576;7.524;2024-01-16T14:25:18;2.10;;;1.90;;
67816;SDS011;54614;47.576;7.524;2024-01-16T14:27:47;2.20;;;2.00;;
67816;SDS011;54614;47.576;7.524;2024-01-16T14:30:29;2.40;;;2.10;;
67816;SDS011;54614;47.576;7.524;2024-01-16T14:33:00;2.27;;;2.07;;
67816;SDS011;54614;47.576;7.524;2024-01-16T14:35:31;2.53;;;2.03;;
67816;SDS011;54614;47.576;7.524;2024-01-16T14:37:58;2.13;;;1.93;;
67816;SDS011;54614;47.576;7.524;2024-01-16T14:40:24;2.37;;;2.13;;
67816;SDS011;54614;47.576;7.524;2024-01-16T14:42:53;2.83;;;2.10;;
67816;SDS011;54614;47.576;7.524;2024-01-16T14:45:24;2.10;;;1.90;;
67816;SDS011;54614;47.576;7.524;2024-01-16T14:47:53;2.97;;;1.90;;
67816;SDS011;54614;47.576;7.524;2024-01-16T14:50:19;2.20;;;2.00;;
67816;SDS011;54614;47.576;7.524;2024-01-16T14:52:47;2.20;;;2.00;;
67816;SDS011;54614;47.576;7.524;2024-01-16T14:55:13;2.10;;;1.90;;
67816;SDS011;54614;47.576;7.524;2024-01-16T14:57:40;2.03;;;1.87;;
67816;SDS011;54614;47.576;7.524;2024-01-16T15:00:16;2.00;;;1.90;;
67816;SDS011;54614;47.576;7.524;2024-01-16T15:02:51;2.30;;;2.10;;
67816;SDS011;54614;47.576;7.524;2024-01-16T15:05:18;2.20;;;1.97;;
67816;SDS011;54614;47.576;7.524;2024-01-16T15:07:46;1.80;;;1.70;;
67816;SDS011;54614;47.576;7.524;2024-01-16T15:10:17;1.90;;;1.80;;
67816;SDS011;54614;47.576;7.524;2024-01-16T15:12:43;2.43;;;2.00;;
67816;SDS011;54614;47.576;7.524;2024-01-16T15:15:11;2.63;;;2.00;;
67816;SDS011;54614;47.576;7.524;2024-01-16T15:17:40;2.00;;;1.90;;
67816;SDS011;54614;47.576;7.524;2024-01-16T15:20:07;2.23;;;2.03;;
67816;SDS011;54614;47.576;7.524;2024-01-16T15:22:41;5.03;;;2.00;;
67816;SDS011;54614;47.576;7.524;2024-01-16T15:25:09;4.63;;;2.00;;
67816;SDS011;54614;47.576;7.524;2024-01-16T15:27:36;2.80;;;2.17;;
67816;SDS011;54614;47.576;7.524;2024-01-16T15:30:03;2.90;;;2.13;;
67816;SDS011;54614;47.576;7.524;2024-01-16T15:32:30;2.87;;;2.40;;
67816;SDS011;54614;47.576;7.524;2024-01-16T15:34:57;4.07;;;2.30;;
67816;SDS011;54614;47.576;7.524;2024-01-16T15:37:23;2.47;;;2.27;;
67816;SDS011;54614;47.576;7.524;2024-01-16T15:39:48;3.00;;;2.23;;
67816;SDS011;54614;47.576;7.524;2024-01-16T15:42:14;3.10;;;2.20;;
67816;SDS011;54614;47.576;7.524;2024-01-16T15:44:40;2.50;;;2.30;;
67816;SDS011;54614;47.576;7.524;2024-01-16T15:47:05;2.60;;;2.23;;
67816;SDS011;54614;47.576;7.524;2024-01-16T15:49:31;2.53;;;2.33;;
67816;SDS011;54614;47.576;7.524;2024-01-16T15:51:57;2.30;;;2.10;;
67816;SDS011;54614;47.576;7.524;2024-01-16T15:54:29;2.50;;;2.30;;
67816;SDS011;54614;47.576;7.524;2024-01-16T15:56:55;2.20;;;2.00;;
67816;SDS011;54614;47.576;7.524;2024-01-16T15:59:22;2.10;;;1.90;;
67816;SDS011;54614;47.576;7.524;2024-01-16T16:01:47;2.20;;;2.00;;
67816;SDS011;54614;47.576;7.524;2024-01-16T16:04:13;2.60;;;2.13;;
67816;SDS011;54614;47.576;7.524;2024-01-16T16:06:40;2.60;;;2.40;;
67816;SDS011;54614;47.576;7.524;2024-01-16T16:09:06;2.43;;;2.20;;
67816;SDS011;54614;47.576;7.524;2024-01-16T16:11:36;3.13;;;2.13;;
67816;SDS011;54614;47.576;7.524;2024-01-16T16:14:11;2.20;;;2.00;;
67816;SDS011;54614;47.576;7.524;2024-01-16T16:16:37;2.40;;;2.20;;
67816;SDS011;54614;47.576;7.524;2024-01-16T16:19:03;5.13;;;2.27;;
67816;SDS011;54614;47.576;7.524;2024-01-16T16:21:29;2.20;;;2.00;;
67816;SDS011;54614;47.576;7.524;2024-01-16T16:23:56;3.13;;;2.30;;
67816;SDS011;54614;47.576;7.524;2024-01-16T16:26:29;7.03;;;3.47;;
67816;SDS011;54614;47.576;7.524;2024-01-16T16:31:37;6.33;;;4.53;;
67816;SDS011;54614;47.576;7.524;2024-01-16T16:34:08;9.23;;;4.23;;
67816;SDS011;54614;47.576;7.524;2024-01-16T16:36:37;7.90;;;4.40;;
67816;SDS011;54614;47.576;7.524;2024-01-16T16:39:04;7.60;;;4.20;;
67816;SDS011;54614;47.576;7.524;2024-01-16T16:41:30;5.37;;;4.00;;
67816;SDS011;54614;47.576;7.524;2024-01-16T16:43:58;7.77;;;4.50;;
67816;SDS011;54614;47.576;7.524;2024-01-16T16:46:25;6.90;;;4.33;;
67816;SDS011;54614;47.576;7.524;2024-01-16T16:48:54;8.17;;;4.57;;
67816;SDS011;54614;47.576;7.524;2024-01-16T16:51:22;7.50;;;4.73;;
67816;SDS011;54614;47.576;7.524;2024-01-16T16:53:50;10.90;;;4.97;;
67816;SDS011;54614;47.576;7.524;2024-01-16T16:56:17;10.53;;;5.03;;
67816;SDS011;54614;47.576;7.524;2024-01-16T16:58:48;9.77;;;4.87;;
67816;SDS011;54614;47.576;7.524;2024-01-16T17:01:16;11.57;;;5.43;;
67816;SDS011;54614;47.576;7.524;2024-01-16T17:03:44;7.07;;;5.10;;
67816;SDS011;54614;47.576;7.524;2024-01-16T17:06:14;9.43;;;4.90;;
67816;SDS011;54614;47.576;7.524;2024-01-16T17:08:39;9.23;;;4.97;;
67816;SDS011;54614;47.576;7.524;2024-01-16T17:11:06;11.93;;;5.20;;
67816;SDS011;54614;47.576;7.524;2024-01-16T17:13:34;13.37;;;4.63;;
67816;SDS011;54614;47.576;7.524;2024-01-16T17:16:02;6.87;;;4.67;;
67816;SDS011;54614;47.576;7.524;2024-01-16T17:18:29;7.87;;;5.20;;
67816;SDS011;54614;47.576;7.524;2024-01-16T17:21:03;10.50;;;4.83;;
67816;SDS011;54614;47.576;7.524;2024-01-16T17:23:31;9.17;;;4.77;;
67816;SDS011;54614;47.576;7.524;2024-01-16T17:25:57;8.40;;;4.50;;
67816;SDS011;54614;47.576;7.524;2024-01-16T17:28:24;15.93;;;4.77;;
67816;SDS011;54614;47.576;7.524;2024-01-16T17:30:53;7.93;;;4.57;;
67816;SDS011;54614;47.576;7.524;2024-01-16T17:33:24;12.47;;;4.80;;
67816;SDS011;54614;47.576;7.524;2024-01-16T17:35:50;11.07;;;4.47;;
67816;SDS011;54614;47.576;7.524;2024-01-16T17:38:19;11.40;;;5.00;;
67816;SDS011;54614;47.576;7.524;2024-01-16T17:40:46;10.83;;;4.53;;
67816;SDS011;54614;47.576;7.524;2024-01-16T17:43:14;10.60;;;5.10;;
67816;SDS011;54614;47.576;7.524;2024-01-16T17:45:39;8.47;;;4.83;;
67816;SDS011;54614;47.576;7.524;2024-01-16T17:48:05;7.77;;;4.20;;
67816;SDS011;54614;47.576;7.524;2024-01-16T17:50:31;9.83;;;4.60;;
67816;SDS011;54614;47.576;7.524;2024-01-16T17:52:58;11.43;;;4.40;;
67816;SDS011;54614;47.576;7.524;2024-01-16T17:55:25;8.93;;;4.67;;
67816;SDS011;54614;47.576;7.524;2024-01-16T17:57:55;9.00;;;4.53;;
67816;SDS011;54614;47.576;7.524;2024-01-16T18:00:23;9.87;;;4.77;;
67816;SDS011;54614;47.576;7.524;2024-01-16T18:02:51;7.43;;;4.40;;
67816;SDS011;54614;47.576;7.524;2024-01-16T18:05:17;8.20;;;4.60;;
67816;SDS011;54614;47.576;7.524;2024-01-16T18:07:43;11.20;;;4.50;;
67816;SDS011;54614;47.576;7.524;2024-01-16T18:10:08;10.27;;;4.73;;
67816;SDS011;54614;47.576;7.524;2024-01-16T18:12:37;11.43;;;4.90;;
67816;SDS011;54614;47.576;7.524;2024-01-16T18:15:04;9.93;;;5.00;;
67816;SDS011;54614;47.576;7.524;2024-01-16T18:17:44;8.07;;;4.63;;
67816;SDS011;54614;47.576;7.524;2024-01-16T18:20:12;14.17;;;4.70;;
67816;SDS011;54614;47.576;7.524;2024-01-16T18:22:45;11.27;;;5.43;;
67816;SDS011;54614;47.576;7.524;2024-01-16T18:25:13;13.80;;;5.80;;
67816;SDS011;54614;47.576;7.524;2024-01-16T18:27:40;10.60;;;4.97;;
67816;SDS011;54614;47.576;7.524;2024-01-16T18:30:10;11.00;;;5.30;;
67816;SDS011;54614;47.576;7.524;2024-01-16T18:32:43;7.17;;;4.87;;
67816;SDS011;54614;47.576;7.524;2024-01-16T18:35:11;8.63;;;5.20;;
67816;SDS011;54614;47.576;7.524;2024-01-16T18:37:38;10.70;;;5.23;;
67816;SDS011;54614;47.576;7.524;2024-01-16T18:40:08;10.07;;;5.50;;
67816;SDS011;54614;47.576;7.524;2024-01-16T18:42:37;11.37;;;5.43;;
67816;SDS011;54614;47.576;7.524;2024-01-16T18:45:04;11.13;;;5.33;;
67816;SDS011;54614;47.576;7.524;2024-01-16T18:47:33;15.07;;;5.37;;
67816;SDS011;54614;47.576;7.524;2024-01-16T18:50:03;8.50;;;5.30;;
67816;SDS011;54614;47.576;7.524;2024-01-16T18:52:29;13.63;;;5.50;;
67816;SDS011;54614;47.576;7.524;2024-01-16T18:54:55;13.27;;;5.97;;
67816;SDS011;54614;47.576;7.524;2024-01-16T18:57:21;8.50;;;5.47;;
67816;SDS011;54614;47.576;7.524;2024-01-16T18:59:47;8.10;;;5.20;;
67816;SDS011;54614;47.576;7.524;2024-01-16T19:02:13;8.97;;;5.23;;
67816;SDS011;54614;47.576;7.524;2024-01-16T19:04:41;8.53;;;5.50;;
67816;SDS011;54614;47.576;7.524;2024-01-16T19:07:11;8.33;;;5.50;;
67816;SDS011;54614;47.576;7.524;2024-01-16T19:09:40;8.80;;;5.60;;
67816;SDS011;54614;47.576;7.524;2024-01-16T19:12:12;9.07;;;5.30;;
67816;SDS011;54614;47.576;7.524;2024-01-16T19:14:40;7.57;;;5.67;;
67816;SDS011;54614;47.576;7.524;2024-01-16T19:17:08;8.40;;;5.40;;
67816;SDS011;54614;47.576;7.524;2024-01-16T19:19:35;8.73;;;5.47;;
67816;SDS011;54614;47.576;7.524;2024-01-16T19:22:01;7.57;;;5.30;;
67816;SDS011;54614;47.576;7.524;2024-01-16T19:24:28;9.13;;;5.50;;